메인 페이지
METAR-TAF:

METAR-TAF

공항 :

인디라 간디 국제공항

뉴델리, 인도

위도: 28-34N, 경도: 077-07E, 고도: 220m

현재 날씨관측

예보는 17분 전, 21:30시(UTC)에 발표되었습니다.
무풍
온도 33°C
습도 30%
기압 1002 hPa
시정: 3200m
연무

METAR: VIDP 222130Z 00000KT 3200 HZ NSC 33/13 Q1002 BECMG VIS 3000 HZ

시각: 03:17 (21:47 UTC)

예보

예보는 1 시간 47분 전, 20:00시(UTC)에 발표되었습니다.
예보 대상 시간: 22일 21시부터 23일 06시까지 (UTC)
kt
시정: 3000m
연무
전환 중
23일 00시부터 23일 02시까지 (UTC)
여러 방향의 바람 2kt
시정: 2000m
고도 10000ft 상공 구름 조금
연무
전환 중
23일 04시부터 23일 06시까지 (UTC)
동북동5kt
시정: 3000m
고도 10000ft 상공 구름 보통
연무

TAF: VIDP 222000Z 2221/2306 00000KT 3000 HZ NSC BECMG 2300/2302 VRB02KT 2000 HZ FEW100 BECMG 2304/2306 07005KT 3000 HZ SCT100

4,000개 이상의 공항 관측 자료 및 예보 (METAR 및 TAF 보고).

지도상에서 검색 가능한 기상관측소가 노란 점과 빨간 점으로 표시되어 있습니다.

기상관측소 명을 보려면 표시 위로 마우스를 이동하세요.

날씨 관측과 예보를 보려면 클릭하세요.

지도 변경 : 확대하려면 엑스 표시가 있는 녹색 버튼, 축소하려면 빼기 표시가 있는 녹색 버튼, 다음 페이지의 지도를 보려면 녹색 화살표를 클릭하세요.


METAR-TAF: